createdAt,value
2022-09-24T00:01:39.330Z,33.58
2022-09-24T00:04:12.075Z,31.50
2022-09-24T00:06:46.725Z,35.13
2022-09-24T00:09:16.445Z,30.90
2022-09-24T00:11:45.463Z,30.05
2022-09-24T00:14:13.483Z,28.70
2022-09-24T00:16:43.557Z,31.52
2022-09-24T00:19:13.859Z,31.92
2022-09-24T00:21:41.604Z,31.02
2022-09-24T00:24:33.121Z,29.80
2022-09-24T00:27:00.896Z,30.40
2022-09-24T00:29:28.470Z,28.52
2022-09-24T00:31:55.602Z,30.98
2022-09-24T00:34:22.397Z,33.08
2022-09-24T00:36:49.215Z,30.27
2022-09-24T00:39:16.850Z,28.27
2022-09-24T00:41:48.063Z,32.17
2022-09-24T00:44:45.346Z,31.42
2022-09-24T00:49:51.392Z,27.88
2022-09-24T00:52:19.797Z,23.92
2022-09-24T00:54:47.956Z,25.33
2022-09-24T00:57:14.998Z,27.20
2022-09-24T00:59:44.937Z,24.13
2022-09-24T01:02:12.742Z,27.45
2022-09-24T01:04:39.634Z,25.67
2022-09-24T01:07:06.484Z,25.10
2022-09-24T01:09:34.545Z,28.38
2022-09-24T01:12:14.500Z,22.90
2022-09-24T01:15:02.893Z,27.60
2022-09-24T01:18:14.682Z,26.30
2022-09-24T01:21:09.400Z,24.25
2022-09-24T01:24:27.716Z,25.92
2022-09-24T01:27:18.174Z,26.80
2022-09-24T01:30:07.921Z,27.75
2022-09-24T01:32:47.358Z,22.50
2022-09-24T01:35:33.113Z,25.17
2022-09-24T01:38:30.806Z,21.45
2022-09-24T01:41:02.733Z,26.75
2022-09-24T01:43:30.362Z,23.45
2022-09-24T01:46:02.878Z,23.58
2022-09-24T01:48:30.353Z,22.52
2022-09-24T01:51:07.800Z,23.08
2022-09-24T01:54:03.620Z,24.67
2022-09-24T01:56:46.954Z,22.70
2022-09-24T01:59:28.118Z,21.98
2022-09-24T02:02:01.504Z,22.13
2022-09-24T02:04:36.905Z,21.45
2022-09-24T02:07:16.093Z,23.02
2022-09-24T02:09:44.312Z,23.23
2022-09-24T02:12:29.517Z,23.80
2022-09-24T02:15:06.551Z,22.05
2022-09-24T02:17:38.322Z,21.13
2022-09-24T02:20:14.679Z,25.05
2022-09-24T02:22:43.939Z,24.80
2022-09-24T02:25:19.646Z,22.70
2022-09-24T02:27:46.935Z,22.67
2022-09-24T02:30:14.766Z,19.95
2022-09-24T02:32:44.464Z,21.92
2022-09-24T02:35:13.085Z,23.23
2022-09-24T02:37:44.476Z,23.30
2022-09-24T02:40:15.689Z,25.60
2022-09-24T02:42:43.540Z,22.17
2022-09-24T02:45:12.399Z,21.67
2022-09-24T02:47:39.398Z,22.52
2022-09-24T02:50:07.082Z,26.27
2022-09-24T02:52:34.069Z,24.90
2022-09-24T02:55:00.925Z,22.52
2022-09-24T02:57:27.826Z,24.13
2022-09-24T02:59:54.610Z,23.38
2022-09-24T03:02:21.885Z,26.05
2022-09-24T03:04:48.769Z,23.77
2022-09-24T03:07:15.667Z,25.58
2022-09-24T03:09:42.521Z,29.83
2022-09-24T03:12:09.668Z,24.08
2022-09-24T03:14:36.498Z,29.05
2022-09-24T03:17:03.419Z,27.65
2022-09-24T03:19:30.204Z,25.40
2022-09-24T03:21:57.021Z,26.27
2022-09-24T03:24:23.843Z,28.05
2022-09-24T03:26:50.611Z,24.48
2022-09-24T03:29:37.567Z,24.88
2022-09-24T03:32:04.454Z,27.92
2022-09-24T03:34:31.256Z,26.85
2022-09-24T03:36:58.053Z,31.67
2022-09-24T03:39:24.862Z,26.33
2022-09-24T03:41:51.633Z,33.42
2022-09-24T03:44:18.410Z,32.33
2022-09-24T03:46:45.212Z,33.45
2022-09-24T03:49:12.029Z,29.92
2022-09-24T03:51:38.831Z,30.63
2022-09-24T03:54:05.879Z,34.25
2022-09-24T03:56:32.729Z,29.70
2022-09-24T03:58:59.546Z,38.63
2022-09-24T04:01:26.375Z,34.95
2022-09-24T04:03:53.354Z,33.55
2022-09-24T04:06:25.524Z,33.22
2022-09-24T04:08:53.502Z,38.88
2022-09-24T04:11:20.400Z,34.88
2022-09-24T04:13:47.355Z,34.17
2022-09-24T04:16:14.214Z,37.70
2022-09-24T04:18:41.049Z,39.42
2022-09-24T04:21:09.771Z,39.97
2022-09-24T04:23:36.662Z,36.30
2022-09-24T04:26:03.598Z,40.08
2022-09-24T04:28:31.715Z,38.47
2022-09-24T04:30:58.669Z,40.83
2022-09-24T04:33:26.079Z,43.00
2022-09-24T04:35:53.018Z,40.45
2022-09-24T04:38:21.273Z,38.30
2022-09-24T04:40:48.764Z,47.35
2022-09-24T04:43:16.114Z,40.47
2022-09-24T04:45:44.955Z,32.45
2022-09-24T04:48:12.923Z,35.03
2022-09-24T04:50:45.582Z,36.22
2022-09-24T04:53:13.677Z,37.17
2022-09-24T04:55:41.687Z,35.95
2022-09-24T04:58:09.950Z,38.70
2022-09-24T05:00:37.404Z,32.70
2022-09-24T05:03:04.866Z,37.50
2022-09-24T05:05:33.769Z,35.70
2022-09-24T05:08:01.717Z,31.95
2022-09-24T05:10:31.697Z,36.15
2022-09-24T05:12:59.530Z,34.28
2022-09-24T05:15:26.645Z,30.48
2022-09-24T05:17:53.553Z,32.22
2022-09-24T05:20:20.537Z,29.70
2022-09-24T05:22:49.596Z,35.80
2022-09-24T05:25:19.842Z,37.45
2022-09-24T05:27:51.252Z,36.53
2022-09-24T05:30:20.845Z,35.70
2022-09-24T05:32:51.915Z,34.40
2022-09-24T05:35:21.102Z,36.33
2022-09-24T05:37:49.673Z,39.63
2022-09-24T05:40:35.349Z,34.85
2022-09-24T05:43:04.388Z,37.22
2022-09-24T05:45:31.588Z,39.53
2022-09-24T05:48:00.108Z,35.70
2022-09-24T05:50:27.637Z,32.15
2022-09-24T05:52:54.938Z,35.50
2022-09-24T05:55:22.021Z,32.08
2022-09-24T05:57:49.237Z,32.97
2022-09-24T06:00:16.227Z,29.63
2022-09-24T06:02:43.226Z,35.30
2022-09-24T06:05:11.023Z,22.63
2022-09-24T06:07:38.564Z,35.00
2022-09-24T06:10:07.396Z,29.85
2022-09-24T06:12:37.216Z,26.42
2022-09-24T06:15:04.963Z,31.35
2022-09-24T06:17:32.473Z,32.72
2022-09-24T06:19:59.350Z,32.13
2022-09-24T06:22:28.512Z,37.30
2022-09-24T06:24:56.095Z,29.08
2022-09-24T06:27:23.103Z,35.08
2022-09-24T06:29:49.923Z,26.75
2022-09-24T06:32:18.693Z,26.95
2022-09-24T06:34:45.654Z,26.73
2022-09-24T06:37:12.451Z,29.10
2022-09-24T06:39:39.287Z,30.92
2022-09-24T06:42:06.996Z,24.02
2022-09-24T06:44:35.839Z,27.55
2022-09-24T06:47:03.059Z,27.65
2022-09-24T06:49:33.806Z,28.58
2022-09-24T06:52:02.266Z,31.02
2022-09-24T06:54:29.052Z,27.45
2022-09-24T06:56:55.894Z,26.40
2022-09-24T06:59:22.694Z,26.70
2022-09-24T07:01:49.558Z,27.92
2022-09-24T07:04:16.501Z,32.53
2022-09-24T07:07:01.862Z,27.35
2022-09-24T07:09:28.634Z,24.38
2022-09-24T07:11:56.951Z,27.75
2022-09-24T07:14:23.758Z,23.52
2022-09-24T07:16:50.561Z,32.97
2022-09-24T07:19:17.405Z,34.45
2022-09-24T07:21:44.211Z,34.28
2022-09-24T07:24:11.057Z,36.35
2022-09-24T07:26:37.812Z,28.95
2022-09-24T07:29:04.774Z,35.15
2022-09-24T07:31:31.725Z,34.72
2022-09-24T07:33:58.589Z,31.02
2022-09-24T07:36:25.385Z,31.98
2022-09-24T07:38:52.189Z,40.25
2022-09-24T07:41:19.437Z,34.53
2022-09-24T07:43:46.228Z,36.70
2022-09-24T07:46:13.108Z,36.22
2022-09-24T07:48:39.964Z,38.22
2022-09-24T07:51:10.189Z,41.97
2022-09-24T07:53:38.176Z,43.42
2022-09-24T07:56:05.330Z,39.17
2022-09-24T07:58:32.110Z,41.15
2022-09-24T08:01:00.572Z,40.90
2022-09-24T08:03:28.095Z,36.83
2022-09-24T08:05:59.817Z,40.13
2022-09-24T08:08:26.728Z,44.03
2022-09-24T08:10:53.912Z,44.20
2022-09-24T08:13:24.033Z,36.53
2022-09-24T08:16:02.323Z,41.63
2022-09-24T08:18:31.970Z,36.22
2022-09-24T08:21:04.438Z,40.33
2022-09-24T08:23:33.339Z,43.05
2022-09-24T08:26:01.312Z,39.25
2022-09-24T08:28:28.813Z,38.78
2022-09-24T08:31:04.249Z,38.58
2022-09-24T08:33:32.594Z,42.17
2022-09-24T08:36:01.203Z,34.08
2022-09-24T08:38:28.734Z,46.22
2022-09-24T08:41:19.240Z,41.58
2022-09-24T08:44:05.404Z,34.38
2022-09-24T08:47:11.984Z,42.72
2022-09-24T08:49:49.908Z,42.63
2022-09-24T08:52:34.727Z,44.40
2022-09-24T08:55:12.335Z,42.47
2022-09-24T08:58:00.895Z,40.22
2022-09-24T09:00:35.869Z,41.03
2022-09-24T09:03:19.694Z,38.22
2022-09-24T09:05:56.986Z,43.53
2022-09-24T09:09:12.105Z,33.38
2022-09-24T09:11:43.751Z,41.95
2022-09-24T09:14:50.097Z,40.80
2022-09-24T09:17:29.737Z,40.17
2022-09-24T09:20:01.771Z,44.20
2022-09-24T09:25:18.188Z,41.38
2022-09-24T09:27:46.821Z,39.35
2022-09-24T09:30:17.918Z,42.35
2022-09-24T09:33:08.528Z,42.30
2022-09-24T09:35:55.555Z,42.22
2022-09-24T09:38:48.794Z,44.35
2022-09-24T09:41:37.071Z,41.80
2022-09-24T09:44:26.327Z,45.88
2022-09-24T09:47:24.667Z,38.67
2022-09-24T09:49:57.332Z,40.95
2022-09-24T09:52:30.104Z,43.88
2022-09-24T09:54:57.035Z,42.25
2022-09-24T09:57:25.929Z,43.28
2022-09-24T09:59:55.562Z,40.88
2022-09-24T10:02:25.861Z,41.10
2022-09-24T10:04:57.748Z,47.92
2022-09-24T10:07:24.875Z,44.17
2022-09-24T10:10:01.281Z,40.95
2022-09-24T10:12:30.341Z,37.72
2022-09-24T10:15:32.917Z,43.72
2022-09-24T10:18:00.975Z,43.58
2022-09-24T10:20:33.746Z,40.90
2022-09-24T10:23:04.988Z,40.47
2022-09-24T10:25:35.117Z,43.30
2022-09-24T10:28:35.487Z,38.22
2022-09-24T10:31:11.447Z,44.45
2022-09-24T10:33:41.052Z,38.75
2022-09-24T10:36:16.950Z,37.08
2022-09-24T10:38:44.772Z,40.05
2022-09-24T10:41:29.492Z,42.03
2022-09-24T10:44:03.120Z,37.67
2022-09-24T10:46:45.126Z,41.42
2022-09-24T10:49:36.643Z,36.60
2022-09-24T10:52:23.654Z,38.55
2022-09-24T10:55:22.145Z,39.72
2022-09-24T10:58:25.749Z,38.40
2022-09-24T11:01:22.791Z,40.83
2022-09-24T11:04:28.352Z,31.45
2022-09-24T11:07:42.444Z,34.83
2022-09-24T11:10:23.983Z,30.90
2022-09-24T11:13:20.750Z,36.88
2022-09-24T11:15:58.702Z,33.38
2022-09-24T11:18:47.226Z,33.83
2022-09-24T11:21:35.117Z,35.22
2022-09-24T11:24:22.788Z,31.23
2022-09-24T11:27:13.556Z,33.92
2022-09-24T11:30:16.425Z,34.80
2022-09-24T11:33:32.643Z,34.92
2022-09-24T11:36:23.571Z,30.77
2022-09-24T11:39:08.115Z,33.60
2022-09-24T11:44:41.048Z,32.20
2022-09-24T11:47:47.648Z,30.85
2022-09-24T11:51:07.090Z,32.88
2022-09-24T11:53:58.921Z,37.50
2022-09-24T11:56:46.174Z,36.10
2022-09-24T11:59:47.554Z,33.85
2022-09-24T12:02:26.265Z,35.15
2022-09-24T12:05:14.093Z,31.95
2022-09-24T12:07:50.176Z,38.28
2022-09-24T12:10:54.022Z,38.40
2022-09-24T12:13:48.121Z,34.80
2022-09-24T12:16:21.979Z,37.03
2022-09-24T12:19:14.375Z,36.45
2022-09-24T12:21:46.905Z,36.13
2022-09-24T12:24:35.807Z,33.38
2022-09-24T12:27:13.992Z,32.85
2022-09-24T12:33:00.395Z,33.15
2022-09-24T12:35:39.644Z,29.98
2022-09-24T12:38:32.815Z,33.92
2022-09-24T12:41:25.271Z,32.65
2022-09-24T12:43:54.606Z,31.77
2022-09-24T12:46:31.278Z,30.98
2022-09-24T12:48:59.798Z,32.30
2022-09-24T12:51:37.653Z,34.83
2022-09-24T12:54:28.430Z,31.35
2022-09-24T12:57:24.991Z,31.25
2022-09-24T13:00:01.999Z,31.70
2022-09-24T13:02:43.367Z,31.10
2022-09-24T13:05:40.936Z,32.28
2022-09-24T13:08:07.747Z,29.42
2022-09-24T13:10:36.575Z,29.67
2022-09-24T13:13:23.681Z,34.40
2022-09-24T13:16:01.651Z,30.83
2022-09-24T13:18:31.393Z,31.67
2022-09-24T13:21:05.550Z,31.30
2022-09-24T13:23:54.112Z,33.30
2022-09-24T13:26:20.814Z,29.83
2022-09-24T13:28:50.200Z,27.60
2022-09-24T13:31:29.312Z,29.40
2022-09-24T13:34:16.111Z,24.20
2022-09-24T13:37:04.281Z,22.15
2022-09-24T13:39:48.641Z,23.27
2022-09-24T13:42:37.747Z,22.92
2022-09-24T13:45:18.473Z,24.00
2022-09-24T13:47:49.827Z,21.27
2022-09-24T13:50:28.190Z,23.20
2022-09-24T13:53:28.119Z,26.98
2022-09-24T13:55:59.614Z,28.20
2022-09-24T13:58:41.950Z,26.02
2022-09-24T14:01:16.413Z,27.27
2022-09-24T14:03:55.353Z,26.65
2022-09-24T14:06:44.600Z,30.20
2022-09-24T14:09:23.391Z,27.23
2022-09-24T14:11:52.873Z,28.58
2022-09-24T14:14:24.407Z,27.23
2022-09-24T14:16:55.466Z,30.30
2022-09-24T14:19:23.539Z,26.67
2022-09-24T14:22:00.569Z,28.17
2022-09-24T14:24:42.565Z,27.90
2022-09-24T14:27:19.457Z,28.63
2022-09-24T14:29:59.684Z,28.55
2022-09-24T14:32:34.855Z,31.27
2022-09-24T14:35:16.046Z,28.98
2022-09-24T14:37:52.152Z,29.85
2022-09-24T14:40:23.004Z,25.15
2022-09-24T14:42:58.378Z,22.35
2022-09-24T14:45:29.430Z,24.48
2022-09-24T14:48:06.534Z,22.77
2022-09-24T14:50:40.582Z,23.77
2022-09-24T14:53:37.053Z,24.48
2022-09-24T14:56:34.038Z,25.77
2022-09-24T14:59:01.460Z,23.45
2022-09-24T15:01:34.397Z,23.95
2022-09-24T15:04:05.514Z,25.38
2022-09-24T15:06:36.559Z,25.45
2022-09-24T15:09:07.383Z,20.85
2022-09-24T15:11:37.409Z,19.85
2022-09-24T15:14:25.733Z,20.05
2022-09-24T15:16:54.000Z,22.45
2022-09-24T15:19:25.960Z,21.08
2022-09-24T15:24:24.940Z,17.13
2022-09-24T15:27:03.748Z,16.85
2022-09-24T15:29:31.118Z,18.20
2022-09-24T15:31:58.952Z,18.45
2022-09-24T15:34:26.187Z,17.98
2022-09-24T15:36:59.004Z,18.10
2022-09-24T15:39:28.172Z,17.40
2022-09-24T15:41:55.021Z,16.65
2022-09-24T15:44:29.799Z,18.33
2022-09-24T15:46:59.960Z,19.02
2022-09-24T15:49:26.819Z,16.83
2022-09-24T15:52:06.183Z,15.98
2022-09-24T15:54:33.097Z,21.90
2022-09-24T15:57:00.759Z,16.50
2022-09-24T15:59:27.953Z,14.18
2022-09-24T16:02:03.645Z,13.85
2022-09-24T16:04:30.715Z,15.07
2022-09-24T16:06:57.773Z,12.23
2022-09-24T16:09:24.628Z,13.48
2022-09-24T16:11:51.485Z,12.90
2022-09-24T16:14:18.291Z,12.38
2022-09-24T16:16:45.138Z,13.02
2022-09-24T16:19:12.532Z,13.70
2022-09-24T16:21:39.618Z,14.23
2022-09-24T16:24:06.620Z,13.07
2022-09-24T16:26:34.446Z,11.20
2022-09-24T16:29:06.366Z,11.23
2022-09-24T16:34:00.200Z,12.18
2022-09-24T16:36:27.038Z,12.43
2022-09-24T16:38:53.880Z,11.68
2022-09-24T16:41:20.751Z,14.48
2022-09-24T16:43:47.607Z,12.50
2022-09-24T16:46:20.254Z,11.55
2022-09-24T16:48:50.074Z,12.93
2022-09-24T16:51:17.416Z,12.48
2022-09-24T16:53:48.724Z,10.40
2022-09-24T16:56:17.832Z,12.63
2022-09-24T16:58:46.751Z,13.73
2022-09-24T17:01:20.108Z,10.25
2022-09-24T17:03:58.743Z,11.70
2022-09-24T17:06:30.104Z,9.32
2022-09-24T17:09:16.809Z,11.80
2022-09-24T17:11:46.625Z,11.05
2022-09-24T17:14:14.485Z,10.75
2022-09-24T17:16:43.538Z,9.13
2022-09-24T17:19:12.379Z,11.05
2022-09-24T17:21:42.932Z,10.93
2022-09-24T17:24:10.307Z,10.43
2022-09-24T17:26:39.271Z,10.23
2022-09-24T17:29:06.465Z,10.30
2022-09-24T17:31:33.929Z,9.10
2022-09-24T17:34:05.457Z,12.10
2022-09-24T17:36:35.222Z,10.80
2022-09-24T17:39:02.760Z,10.70
2022-09-24T17:41:30.462Z,10.88
2022-09-24T17:44:00.998Z,12.30
2022-09-24T17:46:31.121Z,11.18
2022-09-24T17:49:00.782Z,11.23
2022-09-24T17:51:34.257Z,10.57
2022-09-24T17:54:07.741Z,9.48
2022-09-24T17:56:39.009Z,11.45
2022-09-24T17:59:11.881Z,9.27
2022-09-24T18:01:41.074Z,10.25
2022-09-24T18:04:18.883Z,9.48
2022-09-24T18:06:47.989Z,10.80
2022-09-24T18:09:17.217Z,8.68
2022-09-24T18:11:51.351Z,11.90
2022-09-24T18:14:22.331Z,10.68
2022-09-24T18:16:50.555Z,11.68
2022-09-24T18:19:17.955Z,10.77
2022-09-24T18:21:46.515Z,13.38
2022-09-24T18:24:14.604Z,9.55
2022-09-24T18:26:41.989Z,10.90
2022-09-24T18:29:16.676Z,9.60
2022-09-24T18:31:44.683Z,9.13
2022-09-24T18:34:15.436Z,8.07
2022-09-24T18:36:44.694Z,9.80
2022-09-24T18:39:17.680Z,14.68
2022-09-24T18:41:47.080Z,14.05
2022-09-24T18:44:13.929Z,10.40
2022-09-24T18:46:42.082Z,9.60
2022-09-24T18:49:11.430Z,8.38
2022-09-24T18:51:38.713Z,8.20
2022-09-24T18:54:11.992Z,12.55
2022-09-24T18:56:39.252Z,11.98
2022-09-24T18:59:16.734Z,7.53
2022-09-24T19:01:46.342Z,7.93
2022-09-24T19:04:14.926Z,6.32
2022-09-24T19:06:45.316Z,8.52
2022-09-24T19:09:15.491Z,7.68
2022-09-24T19:11:42.399Z,9.57
2022-09-24T19:14:12.100Z,8.05
2022-09-24T19:16:40.218Z,10.40
2022-09-24T19:19:07.279Z,8.25
2022-09-24T19:21:34.109Z,8.07
2022-09-24T19:24:01.211Z,8.27
2022-09-24T19:26:34.818Z,10.02
2022-09-24T19:29:02.572Z,14.43
2022-09-24T19:31:40.961Z,6.13
2022-09-24T19:34:12.304Z,7.90
2022-09-24T19:36:44.022Z,7.57
2022-09-24T19:39:15.462Z,13.02
2022-09-24T19:41:43.478Z,9.52
2022-09-24T19:44:11.396Z,6.43
2022-09-24T19:46:39.090Z,8.27
2022-09-24T19:49:06.818Z,9.35
2022-09-24T19:51:34.884Z,11.02
2022-09-24T19:54:06.702Z,7.72
2022-09-24T19:59:02.259Z,11.25
2022-09-24T20:01:31.966Z,7.22
2022-09-24T20:04:03.733Z,9.05
2022-09-24T20:06:33.844Z,9.95
2022-09-24T20:09:01.286Z,7.00
2022-09-24T20:11:29.417Z,8.25
2022-09-24T20:13:57.018Z,9.88
2022-09-24T20:16:27.177Z,7.72
2022-09-24T20:19:00.144Z,12.60
2022-09-24T20:21:32.068Z,8.60
2022-09-24T20:24:01.162Z,8.98
2022-09-24T20:26:46.561Z,11.15
2022-09-24T20:29:15.470Z,7.68
2022-09-24T20:31:52.041Z,6.82
2022-09-24T20:34:28.404Z,13.05
2022-09-24T20:36:57.655Z,9.35
2022-09-24T20:39:24.472Z,10.73
2022-09-24T20:41:51.328Z,11.85
2022-09-24T20:44:18.203Z,10.15
2022-09-24T20:46:45.031Z,8.15
2022-09-24T20:49:22.578Z,8.55
2022-09-24T20:51:56.531Z,14.88
2022-09-24T20:54:26.486Z,9.85
2022-09-24T20:56:53.480Z,9.00
2022-09-24T20:59:20.451Z,14.88
2022-09-24T21:01:49.329Z,10.18
2022-09-24T21:04:17.560Z,11.45
2022-09-24T21:06:44.402Z,10.63
2022-09-24T21:09:11.614Z,8.68
2022-09-24T21:11:38.573Z,13.27
2022-09-24T21:14:05.708Z,13.35
2022-09-24T21:16:34.706Z,11.45
2022-09-24T21:19:05.658Z,10.18
2022-09-24T21:21:38.436Z,10.23
2022-09-24T21:24:08.967Z,9.30
2022-09-24T21:26:38.464Z,11.25
2022-09-24T21:29:12.958Z,11.95
2022-09-24T21:31:41.929Z,10.07
2022-09-24T21:34:09.247Z,10.38
2022-09-24T21:36:43.934Z,12.10
2022-09-24T21:39:23.089Z,10.77
2022-09-24T21:41:52.930Z,16.73
2022-09-24T21:44:19.807Z,10.93
2022-09-24T21:46:47.744Z,8.13
2022-09-24T21:49:17.020Z,8.43
2022-09-24T21:51:45.123Z,9.88
2022-09-24T21:54:18.078Z,9.43
2022-09-24T21:56:46.210Z,9.80
2022-09-24T21:59:34.332Z,8.88
2022-09-24T22:02:02.971Z,10.98
2022-09-24T22:04:31.833Z,12.20
2022-09-24T22:06:59.277Z,8.35
2022-09-24T22:09:26.809Z,10.88
2022-09-24T22:11:59.032Z,9.38
2022-09-24T22:14:26.257Z,8.68
2022-09-24T22:16:53.571Z,6.32
2022-09-24T22:19:20.656Z,9.57
2022-09-24T22:21:47.499Z,9.20
2022-09-24T22:24:15.616Z,11.45
2022-09-24T22:26:42.447Z,10.40
2022-09-24T22:29:09.281Z,7.38
2022-09-24T22:31:36.133Z,7.45
2022-09-24T22:34:21.483Z,11.63
2022-09-24T22:36:48.315Z,8.55
2022-09-24T22:39:15.574Z,8.13
2022-09-24T22:41:43.256Z,9.10
2022-09-24T22:44:12.117Z,8.88
2022-09-24T22:46:41.259Z,7.82
2022-09-24T22:49:10.286Z,11.10
2022-09-24T22:51:38.429Z,6.50
2022-09-24T22:54:05.906Z,11.52
2022-09-24T22:56:34.884Z,9.95
2022-09-24T22:59:02.259Z,7.78
2022-09-24T23:01:33.433Z,12.13
2022-09-24T23:04:01.869Z,7.82
2022-09-24T23:06:28.813Z,7.20
2022-09-24T23:08:56.081Z,7.03
2022-09-24T23:11:32.201Z,6.15
2022-09-24T23:14:02.658Z,10.50
2022-09-24T23:16:33.709Z,5.32
2022-09-24T23:19:07.410Z,8.98
2022-09-24T23:21:35.025Z,7.28
2022-09-24T23:24:09.449Z,8.25
2022-09-24T23:26:36.743Z,10.98
2022-09-24T23:29:03.969Z,7.68
2022-09-24T23:31:35.362Z,5.97
2022-09-24T23:34:04.289Z,7.35
2022-09-24T23:36:33.537Z,5.97
2022-09-24T23:39:01.796Z,7.32
2022-09-24T23:41:29.941Z,10.00
2022-09-24T23:43:56.791Z,7.22
2022-09-24T23:46:23.990Z,9.93
2022-09-24T23:48:51.064Z,9.98
2022-09-24T23:51:17.886Z,9.57
2022-09-24T23:53:44.745Z,8.40
2022-09-24T23:56:13.389Z,14.65
2022-09-24T23:58:42.040Z,9.93
